Ningbo Seal — VRJD3 — position and weather

sailwx.info

Track history (hours):
 
Tides and Currents Weather Stations Pressure Air Temp Water Temp Dewpoint Dewpoint Depression Visibility Wind Speed Wind Dir Waves Ship Positions

Ningbo Seal

Last reported at 2014-Aug-19 05:11 UTC. Time now 2014-Aug-22 13:45 UTC.
Position N 01°16' E 104°07'.

Length 224 m; draft 12.8 m.

Type: Cargo ship. MMSI: 477628100.

Date/timePositionNaut miles runAvg speedWind from/ knotsBaromVisibWave heightAir tempDewpointWater temp
2014-Aug-19 05:11N 01°16' E 104°07'610.1
2014-Aug-19 04:33N 01°16' E 104°00'4 3.2
2014-Aug-19 03:26N 01°17' E 103°57'0 0.0
2014-Aug-19 02:26N 01°17' E 103°57'0 0.0
2014-Aug-19 01:32N 01°17' E 103°57'0 0.0
2014-Aug-19 00:29N 01°17' E 103°57'0 0.1
2014-Aug-18 23:32N 01°17' E 103°57'0 0.1
2014-Aug-18 22:32N 01°17' E 103°57'0 0.1
2014-Aug-18 21:32N 01°17' E 103°57'0 0.1
2014-Aug-18 20:32N 01°17' E 103°57'0 0.0
2014-Aug-18 19:32N 01°17' E 103°57'0 0.0
2014-Aug-18 18:32N 01°17' E 103°57'0 0.1
2014-Aug-18 17:32N 01°17' E 103°57'0 0.0
2014-Aug-18 16:32N 01°17' E 103°57'0 0.0
2014-Aug-18 15:32N 01°17' E 103°57'0 0.0
2014-Aug-18 14:32N 01°17' E 103°57'0 0.0
2014-Aug-18 13:32N 01°17' E 103°57'0 0.0
2014-Aug-18 12:32N 01°17' E 103°57'0 0.1
2014-Aug-18 11:32N 01°17' E 103°57'0 0.1
2014-Aug-18 10:33N 01°17' E 103°57'2 1.6
2014-Aug-18 09:33N 01°15' E 103°57'3 2.7
2014-Aug-18 08:33N 01°13' E 103°56'7 6.7
2014-Aug-18 07:33N 01°10' E 103°50'  
Track history (hours):
 
Tides and Currents Weather Stations Pressure Air Temp Water Temp Dewpoint Dewpoint Depression Visibility Wind Speed Wind Dir Waves Ship Positions

Ningbo Seal

Last reported at 2014-Aug-19 05:11 UTC. Time now 2014-Aug-22 13:45 UTC.
Position N 01°16' E 104°07'.

Length 224 m; draft 12.8 m.

Type: Cargo ship. MMSI: 477628100.

Date/timePositionNaut miles runAvg speedWind from/ knotsBaromVisibWave heightAir tempDewpointWater temp
2014-Aug-19 05:11N 01°16' E 104°07'610.1
2014-Aug-19 04:33N 01°16' E 104°00'4 3.2
2014-Aug-19 03:26N 01°17' E 103°57'0 0.0
2014-Aug-19 02:26N 01°17' E 103°57'0 0.0
2014-Aug-19 01:32N 01°17' E 103°57'0 0.0
2014-Aug-19 00:29N 01°17' E 103°57'0 0.1
2014-Aug-18 23:32N 01°17' E 103°57'0 0.1
2014-Aug-18 22:32N 01°17' E 103°57'0 0.1
2014-Aug-18 21:32N 01°17' E 103°57'0 0.1
2014-Aug-18 20:32N 01°17' E 103°57'0 0.0
2014-Aug-18 19:32N 01°17' E 103°57'0 0.0
2014-Aug-18 18:32N 01°17' E 103°57'0 0.1
2014-Aug-18 17:32N 01°17' E 103°57'0 0.0
2014-Aug-18 16:32N 01°17' E 103°57'0 0.0
2014-Aug-18 15:32N 01°17' E 103°57'0 0.0
2014-Aug-18 14:32N 01°17' E 103°57'0 0.0
2014-Aug-18 13:32N 01°17' E 103°57'0 0.0
2014-Aug-18 12:32N 01°17' E 103°57'0 0.1
2014-Aug-18 11:32N 01°17' E 103°57'0 0.1
2014-Aug-18 10:33N 01°17' E 103°57'2 1.6
2014-Aug-18 09:33N 01°15' E 103°57'3 2.7
2014-Aug-18 08:33N 01°13' E 103°56'7 6.7
2014-Aug-18 07:33N 01°10' E 103°50'  

Dump ship's entire track history